createdAt,value
2023-05-21T00:01:07.348Z,6.00
2023-05-21T00:03:36.267Z,3.78
2023-05-21T00:06:04.268Z,2.97
2023-05-21T00:08:31.826Z,2.00
2023-05-21T00:10:59.070Z,2.33
2023-05-21T00:13:26.414Z,2.25
2023-05-21T00:15:53.778Z,2.35
2023-05-21T00:18:22.198Z,3.67
2023-05-21T00:20:49.502Z,2.60
2023-05-21T00:23:18.587Z,2.50
2023-05-21T00:25:46.772Z,2.80
2023-05-21T00:28:14.112Z,3.53
2023-05-21T00:30:43.063Z,2.63
2023-05-21T00:33:10.555Z,3.42
2023-05-21T00:35:38.325Z,2.90
2023-05-21T00:38:07.404Z,3.05
2023-05-21T00:40:35.669Z,6.07
2023-05-21T00:43:03.480Z,2.78
2023-05-21T00:45:30.884Z,3.05
2023-05-21T00:47:58.553Z,4.27
2023-05-21T00:50:26.142Z,5.97
2023-05-21T00:52:54.471Z,4.38
2023-05-21T00:55:22.013Z,2.90
2023-05-21T00:57:49.566Z,3.60
2023-05-21T01:00:17.125Z,2.97
2023-05-21T01:02:44.587Z,4.28
2023-05-21T01:05:13.032Z,2.40
2023-05-21T01:07:41.790Z,6.00
2023-05-21T01:10:10.538Z,2.70
2023-05-21T01:12:38.787Z,3.10
2023-05-21T01:15:06.462Z,4.80
2023-05-21T01:17:34.295Z,9.40
2023-05-21T01:20:01.993Z,2.78
2023-05-21T01:22:32.650Z,5.53
2023-05-21T01:25:02.772Z,4.23
2023-05-21T01:27:30.225Z,2.85
2023-05-21T01:29:57.862Z,3.88
2023-05-21T01:32:44.212Z,4.43
2023-05-21T01:35:18.212Z,7.05
2023-05-21T01:37:47.290Z,3.00
2023-05-21T01:40:14.574Z,6.72
2023-05-21T01:42:44.300Z,5.57
2023-05-21T01:45:12.302Z,4.60
2023-05-21T01:47:40.447Z,4.20
2023-05-21T01:50:08.277Z,3.17
2023-05-21T01:52:35.850Z,5.00
2023-05-21T01:55:03.825Z,4.03
2023-05-21T01:57:31.659Z,3.22
2023-05-21T01:59:59.852Z,5.47
2023-05-21T02:02:27.281Z,4.40
2023-05-21T02:04:54.696Z,3.25
2023-05-21T02:07:22.859Z,3.92
2023-05-21T02:09:50.187Z,3.40
2023-05-21T02:12:18.043Z,3.00
2023-05-21T02:14:50.323Z,3.10
2023-05-21T02:17:17.704Z,3.60
2023-05-21T02:19:45.019Z,3.42
2023-05-21T02:22:12.293Z,4.72
2023-05-21T02:24:39.650Z,3.65
2023-05-21T02:27:07.187Z,3.20
2023-05-21T02:29:34.592Z,5.80
2023-05-21T02:32:01.926Z,5.18
2023-05-21T02:34:32.307Z,3.38
2023-05-21T02:37:00.150Z,3.72
2023-05-21T02:39:27.467Z,4.30
2023-05-21T02:41:56.252Z,6.28
2023-05-21T02:44:24.105Z,3.40
2023-05-21T02:46:51.505Z,4.03
2023-05-21T02:49:19.309Z,5.45
2023-05-21T02:51:47.950Z,5.07
2023-05-21T02:54:16.472Z,3.90
2023-05-21T02:56:43.856Z,4.13
2023-05-21T02:59:11.123Z,3.90
2023-05-21T03:01:38.614Z,3.33
2023-05-21T03:04:06.153Z,4.43
2023-05-21T03:06:34.702Z,5.72
2023-05-21T03:09:03.627Z,5.30
2023-05-21T03:11:31.043Z,4.15
2023-05-21T03:13:59.387Z,3.65
2023-05-21T03:16:26.779Z,4.80
2023-05-21T03:18:54.144Z,3.92
2023-05-21T03:21:22.751Z,4.75
2023-05-21T03:23:51.369Z,4.15
2023-05-21T03:26:18.782Z,6.30
2023-05-21T03:28:46.125Z,5.87
2023-05-21T03:31:13.467Z,5.60
2023-05-21T03:34:03.065Z,7.32
2023-05-21T03:36:32.092Z,4.35
2023-05-21T03:38:59.436Z,4.68
2023-05-21T03:41:26.856Z,4.00
2023-05-21T03:44:07.125Z,5.20
2023-05-21T03:46:46.529Z,4.93
2023-05-21T03:49:23.437Z,5.32
2023-05-21T03:51:54.110Z,7.65
2023-05-21T03:54:21.877Z,4.33
2023-05-21T03:56:51.695Z,6.05
2023-05-21T03:59:19.743Z,4.43
2023-05-21T04:01:47.742Z,4.20
2023-05-21T04:04:17.643Z,4.55
2023-05-21T04:06:45.003Z,6.57
2023-05-21T04:09:13.352Z,4.32
2023-05-21T04:11:40.691Z,5.03
2023-05-21T04:14:08.103Z,5.68
2023-05-21T04:16:35.533Z,4.47
2023-05-21T04:19:04.312Z,4.37
2023-05-21T04:21:32.247Z,4.45
2023-05-21T04:24:00.769Z,8.80
2023-05-21T04:26:48.185Z,5.03
2023-05-21T04:29:21.192Z,4.40
2023-05-21T04:31:50.173Z,4.20
2023-05-21T04:34:20.534Z,4.40
2023-05-21T04:36:48.191Z,3.90
2023-05-21T04:39:16.536Z,3.72
2023-05-21T04:41:44.308Z,3.28
2023-05-21T04:44:14.969Z,4.57
2023-05-21T04:46:46.110Z,4.32
2023-05-21T04:49:13.853Z,4.55
2023-05-21T04:51:41.608Z,4.20
2023-05-21T04:54:08.944Z,4.85
2023-05-21T04:56:36.252Z,3.80
2023-05-21T04:59:05.584Z,4.38
2023-05-21T05:01:35.299Z,4.88
2023-05-21T05:04:02.821Z,4.78
2023-05-21T05:06:31.739Z,3.75
2023-05-21T05:08:59.076Z,4.23
2023-05-21T05:11:26.775Z,3.30
2023-05-21T05:13:54.325Z,5.47
2023-05-21T05:16:25.773Z,4.03
2023-05-21T05:18:56.270Z,3.88
2023-05-21T05:21:24.171Z,3.97
2023-05-21T05:23:51.723Z,4.65
2023-05-21T05:26:22.296Z,5.70
2023-05-21T05:28:50.027Z,4.15
2023-05-21T05:31:17.470Z,5.05
2023-05-21T05:33:45.225Z,6.13
2023-05-21T05:36:12.875Z,4.28
2023-05-21T05:38:40.302Z,4.25
2023-05-21T05:41:07.668Z,5.15
2023-05-21T05:43:34.981Z,4.00
2023-05-21T05:46:02.434Z,3.40
2023-05-21T05:48:29.761Z,3.92
2023-05-21T05:50:58.179Z,5.20
2023-05-21T05:53:26.736Z,4.53
2023-05-21T05:55:54.712Z,5.05
2023-05-21T05:58:22.098Z,5.00
2023-05-21T06:01:19.701Z,4.10
2023-05-21T06:03:47.423Z,5.47
2023-05-21T06:06:17.265Z,3.90
2023-05-21T06:08:45.143Z,4.78
2023-05-21T06:11:13.233Z,5.13
2023-05-21T06:13:40.685Z,5.38
2023-05-21T06:16:10.029Z,5.32
2023-05-21T06:18:37.948Z,5.95
2023-05-21T06:21:05.410Z,6.18
2023-05-21T06:23:32.851Z,5.67
2023-05-21T06:26:00.791Z,5.97
2023-05-21T06:28:28.198Z,6.50
2023-05-21T06:30:55.880Z,5.50
2023-05-21T06:33:23.457Z,7.85
2023-05-21T06:35:50.980Z,5.40
2023-05-21T06:38:18.428Z,6.93
2023-05-21T06:40:47.462Z,5.07
2023-05-21T06:43:22.505Z,4.50
2023-05-21T06:46:10.143Z,5.80
2023-05-21T06:48:40.074Z,5.27
2023-05-21T06:51:07.390Z,4.90
2023-05-21T06:53:34.722Z,4.50
2023-05-21T06:56:02.025Z,5.90
2023-05-21T06:58:55.390Z,4.85
2023-05-21T07:01:22.881Z,7.10
2023-05-21T07:03:50.246Z,5.30
2023-05-21T07:06:17.647Z,7.25
2023-05-21T07:08:45.022Z,6.57
2023-05-21T07:11:12.352Z,6.20
2023-05-21T07:13:40.221Z,6.97
2023-05-21T07:16:07.773Z,5.80
2023-05-21T07:18:36.751Z,5.10
2023-05-21T07:21:04.227Z,7.25
2023-05-21T07:23:31.554Z,6.18
2023-05-21T07:25:58.912Z,7.27
2023-05-21T07:28:26.249Z,4.72
2023-05-21T07:30:53.627Z,6.22
2023-05-21T07:33:27.777Z,8.35
2023-05-21T07:35:55.108Z,9.75
2023-05-21T07:38:22.463Z,5.57
2023-05-21T07:40:49.947Z,5.65
2023-05-21T07:43:17.414Z,5.85
2023-05-21T07:45:44.943Z,6.97
2023-05-21T07:48:12.385Z,7.60
2023-05-21T07:50:52.531Z,5.80
2023-05-21T07:53:20.402Z,9.32
2023-05-21T07:55:48.151Z,6.40
2023-05-21T07:58:18.701Z,9.18
2023-05-21T08:00:47.287Z,5.30
2023-05-21T08:03:16.607Z,6.70
2023-05-21T08:05:48.383Z,6.07
2023-05-21T08:08:17.870Z,5.03
2023-05-21T08:10:47.776Z,8.82
2023-05-21T08:13:16.376Z,8.10
2023-05-21T08:15:44.210Z,5.47
2023-05-21T08:18:12.989Z,5.72
2023-05-21T08:20:43.114Z,5.95
2023-05-21T08:23:10.938Z,7.07
2023-05-21T08:25:42.949Z,6.60
2023-05-21T08:28:11.061Z,5.57
2023-05-21T08:30:39.490Z,7.18
2023-05-21T08:33:06.978Z,6.95
2023-05-21T08:35:35.120Z,7.38
2023-05-21T08:38:17.712Z,6.97
2023-05-21T08:40:55.937Z,6.27
2023-05-21T08:43:24.826Z,5.35
2023-05-21T08:45:56.026Z,8.27
2023-05-21T08:48:26.491Z,5.50
2023-05-21T08:50:55.022Z,9.23
2023-05-21T08:53:30.171Z,7.27
2023-05-21T08:55:58.932Z,7.55
2023-05-21T08:58:49.685Z,5.25
2023-05-21T09:01:20.304Z,7.43
2023-05-21T09:03:57.096Z,5.75
2023-05-21T09:06:26.941Z,8.80
2023-05-21T09:08:59.804Z,7.05
2023-05-21T09:11:33.960Z,6.18
2023-05-21T09:14:02.058Z,5.32
2023-05-21T09:16:39.272Z,5.28
2023-05-21T09:19:07.523Z,7.87
2023-05-21T09:21:35.488Z,6.45
2023-05-21T09:24:11.412Z,7.80
2023-05-21T09:26:41.969Z,5.13
2023-05-21T09:29:10.385Z,5.60
2023-05-21T09:31:44.255Z,7.27
2023-05-21T09:34:14.292Z,5.90
2023-05-21T09:36:44.137Z,7.70
2023-05-21T09:39:16.493Z,5.00
2023-05-21T09:41:44.953Z,6.93
2023-05-21T09:44:12.851Z,7.60
2023-05-21T09:46:41.016Z,6.32
2023-05-21T09:49:22.753Z,6.45
2023-05-21T09:51:50.151Z,6.25
2023-05-21T09:54:17.497Z,5.03
2023-05-21T09:56:44.931Z,9.40
2023-05-21T09:59:12.244Z,6.95
2023-05-21T10:01:39.639Z,6.35
2023-05-21T10:04:08.657Z,6.13
2023-05-21T10:06:38.296Z,9.57
2023-05-21T10:09:10.591Z,7.27
2023-05-21T10:11:38.361Z,5.70
2023-05-21T10:14:07.448Z,8.00
2023-05-21T10:16:36.019Z,4.47
2023-05-21T10:19:05.320Z,5.15
2023-05-21T10:21:36.004Z,6.67
2023-05-21T10:24:04.368Z,6.68
2023-05-21T10:26:32.028Z,6.10
2023-05-21T10:29:00.661Z,6.93
2023-05-21T10:31:28.704Z,5.03
2023-05-21T10:33:56.723Z,8.77
2023-05-21T10:36:31.842Z,9.30
2023-05-21T10:38:59.353Z,4.90
2023-05-21T10:41:28.653Z,6.40
2023-05-21T10:44:08.244Z,6.90
2023-05-21T10:46:46.375Z,6.63
2023-05-21T10:49:14.098Z,5.15
2023-05-21T10:52:00.660Z,5.03
2023-05-21T10:54:46.738Z,6.55
2023-05-21T10:57:25.940Z,7.88
2023-05-21T10:59:53.297Z,7.70
2023-05-21T11:02:21.537Z,5.07
2023-05-21T11:04:49.272Z,7.32
2023-05-21T11:07:24.700Z,4.35
2023-05-21T11:09:52.739Z,7.97
2023-05-21T11:12:23.255Z,6.27
2023-05-21T11:14:59.811Z,4.97
2023-05-21T11:17:44.522Z,6.25
2023-05-21T11:20:16.837Z,5.18
2023-05-21T11:22:46.882Z,6.30
2023-05-21T11:25:15.567Z,6.83
2023-05-21T11:27:42.958Z,6.60
2023-05-21T11:30:11.351Z,8.52
2023-05-21T11:33:01.876Z,6.70
2023-05-21T11:35:29.221Z,6.93
2023-05-21T11:37:56.454Z,10.80
2023-05-21T11:40:28.370Z,6.35
2023-05-21T11:42:56.457Z,5.43
2023-05-21T11:45:25.162Z,8.25
2023-05-21T11:47:53.537Z,7.10
2023-05-21T11:50:21.317Z,10.60
2023-05-21T11:52:49.766Z,6.85
2023-05-21T11:55:21.751Z,5.47
2023-05-21T11:57:49.255Z,8.65
2023-05-21T12:00:17.026Z,5.72
2023-05-21T12:02:48.812Z,7.47
2023-05-21T12:05:16.426Z,8.75
2023-05-21T12:07:48.570Z,5.75
2023-05-21T12:10:16.149Z,6.40
2023-05-21T12:12:54.984Z,6.93
2023-05-21T12:15:24.614Z,7.43
2023-05-21T12:17:53.221Z,5.68
2023-05-21T12:20:21.072Z,6.50
2023-05-21T12:22:50.286Z,7.38
2023-05-21T12:25:21.346Z,6.25
2023-05-21T12:27:52.912Z,8.70
2023-05-21T12:30:21.309Z,4.70
2023-05-21T12:32:49.728Z,7.47
2023-05-21T12:35:23.975Z,6.57
2023-05-21T12:37:52.082Z,5.80
2023-05-21T12:40:20.495Z,4.97
2023-05-21T12:42:47.893Z,5.85
2023-05-21T12:45:16.046Z,6.45
2023-05-21T12:47:49.892Z,6.10
2023-05-21T12:50:21.198Z,6.22
2023-05-21T12:52:48.689Z,5.63
2023-05-21T12:55:16.117Z,8.35
2023-05-21T12:57:43.977Z,6.78
2023-05-21T13:00:12.096Z,7.45
2023-05-21T13:02:40.798Z,8.20
2023-05-21T13:05:09.303Z,5.60
2023-05-21T13:07:37.745Z,5.53
2023-05-21T13:10:05.474Z,5.88
2023-05-21T13:12:33.290Z,7.40
2023-05-21T13:15:01.756Z,5.30
2023-05-21T13:17:29.450Z,5.13
2023-05-21T13:20:12.412Z,6.35
2023-05-21T13:22:45.187Z,6.75
2023-05-21T13:25:15.664Z,6.93
2023-05-21T13:27:43.445Z,5.95
2023-05-21T13:30:14.158Z,10.20
2023-05-21T13:32:43.560Z,6.95
2023-05-21T13:35:12.063Z,7.82
2023-05-21T13:37:40.260Z,8.38
2023-05-21T13:40:08.943Z,6.05
2023-05-21T13:42:38.340Z,7.43
2023-05-21T13:45:06.185Z,9.63
2023-05-21T13:47:34.442Z,9.07
2023-05-21T13:50:02.696Z,5.45
2023-05-21T13:52:30.073Z,7.97
2023-05-21T13:54:57.398Z,5.73
2023-05-21T13:57:26.969Z,9.13
2023-05-21T13:59:54.330Z,5.45
2023-05-21T14:02:21.668Z,4.50
2023-05-21T14:04:49.243Z,6.65
2023-05-21T14:07:16.834Z,5.97
2023-05-21T14:09:44.248Z,6.07
2023-05-21T14:12:11.845Z,6.88
2023-05-21T14:14:39.116Z,6.38
2023-05-21T14:17:07.048Z,7.93
2023-05-21T14:19:34.602Z,5.53
2023-05-21T14:22:01.922Z,5.38
2023-05-21T14:24:29.307Z,5.55
2023-05-21T14:26:56.667Z,7.15
2023-05-21T14:29:24.037Z,5.55
2023-05-21T14:31:51.417Z,7.93
2023-05-21T14:34:18.757Z,5.63
2023-05-21T14:36:46.080Z,9.27
2023-05-21T14:39:13.373Z,7.75
2023-05-21T14:41:40.922Z,5.22
2023-05-21T14:44:08.352Z,4.63
2023-05-21T14:46:36.840Z,5.07
2023-05-21T14:49:04.227Z,6.88
2023-05-21T14:51:31.892Z,7.22
2023-05-21T14:53:59.261Z,5.65
2023-05-21T14:56:28.145Z,6.03
2023-05-21T14:58:55.885Z,10.65
2023-05-21T15:01:23.475Z,5.65
2023-05-21T15:03:51.376Z,5.43
2023-05-21T15:06:18.939Z,8.10
2023-05-21T15:08:46.348Z,9.20
2023-05-21T15:11:13.595Z,9.77
2023-05-21T15:13:41.211Z,4.97
2023-05-21T15:16:08.721Z,7.68
2023-05-21T15:18:36.227Z,5.07
2023-05-21T15:21:03.721Z,8.83
2023-05-21T15:23:31.154Z,5.25
2023-05-21T15:25:58.494Z,5.53
2023-05-21T15:28:25.782Z,5.85
2023-05-21T15:30:53.204Z,7.78
2023-05-21T15:33:20.601Z,4.47
2023-05-21T15:35:48.096Z,6.45
2023-05-21T15:38:15.667Z,6.45
2023-05-21T15:40:43.096Z,8.35
2023-05-21T15:43:10.358Z,9.55
2023-05-21T15:45:38.797Z,5.40
2023-05-21T15:48:06.816Z,7.28
2023-05-21T15:50:35.774Z,7.32
2023-05-21T15:53:04.296Z,5.53
2023-05-21T15:55:34.771Z,6.30
2023-05-21T15:58:03.924Z,7.50
2023-05-21T16:00:31.397Z,6.28
2023-05-21T16:02:58.859Z,6.20
2023-05-21T16:05:26.682Z,6.13
2023-05-21T16:07:54.059Z,4.82
2023-05-21T16:10:21.922Z,7.47
2023-05-21T16:12:49.252Z,7.30
2023-05-21T16:15:16.642Z,7.13
2023-05-21T16:17:44.445Z,9.27
2023-05-21T16:20:28.087Z,5.93
2023-05-21T16:22:59.105Z,6.57
2023-05-21T16:25:26.667Z,6.45
2023-05-21T16:27:55.210Z,7.25
2023-05-21T16:30:23.882Z,5.93
2023-05-21T16:32:51.157Z,6.38
2023-05-21T16:35:18.475Z,7.70
2023-05-21T16:37:46.274Z,6.25
2023-05-21T16:40:13.983Z,8.27
2023-05-21T16:42:41.426Z,6.53
2023-05-21T16:45:08.998Z,5.90
2023-05-21T16:47:36.339Z,7.73
2023-05-21T16:50:03.922Z,7.43
2023-05-21T16:52:31.239Z,8.63
2023-05-21T16:54:58.584Z,7.10
2023-05-21T16:57:25.969Z,5.68
2023-05-21T16:59:53.266Z,7.93
2023-05-21T17:02:20.740Z,13.00
2023-05-21T17:04:48.457Z,8.45
2023-05-21T17:07:16.374Z,6.68
2023-05-21T17:09:43.746Z,8.50
2023-05-21T17:12:11.051Z,7.73
2023-05-21T17:14:39.766Z,5.40
2023-05-21T17:17:07.412Z,9.88
2023-05-21T17:19:34.993Z,8.13
2023-05-21T17:22:02.542Z,7.32
2023-05-21T17:24:29.889Z,8.27
2023-05-21T17:26:57.181Z,7.25
2023-05-21T17:29:24.528Z,7.50
2023-05-21T17:31:51.984Z,5.75
2023-05-21T17:34:19.398Z,8.25
2023-05-21T17:36:46.716Z,14.50
2023-05-21T17:39:14.052Z,14.57
2023-05-21T17:41:41.474Z,7.93
2023-05-21T17:44:09.017Z,15.10
2023-05-21T17:46:36.401Z,17.75
2023-05-21T17:49:05.720Z,16.87
2023-05-21T17:51:33.130Z,7.93
2023-05-21T17:54:00.741Z,12.80
2023-05-21T17:56:28.135Z,10.75
2023-05-21T17:58:55.633Z,9.75
2023-05-21T18:01:23.095Z,8.97
2023-05-21T18:03:50.663Z,7.28
2023-05-21T18:06:18.081Z,10.98
2023-05-21T18:08:45.419Z,7.03
2023-05-21T18:11:12.764Z,10.75
2023-05-21T18:13:40.044Z,14.00
2023-05-21T18:16:07.395Z,18.45
2023-05-21T18:18:34.705Z,10.60
2023-05-21T18:21:02.010Z,11.00
2023-05-21T18:23:31.238Z,11.57
2023-05-21T18:25:58.628Z,10.00
2023-05-21T18:28:27.517Z,10.50
2023-05-21T18:30:55.201Z,9.90
2023-05-21T18:33:22.824Z,11.20
2023-05-21T18:35:50.272Z,8.75
2023-05-21T18:38:17.542Z,11.23
2023-05-21T18:40:44.891Z,11.40
2023-05-21T18:43:12.129Z,11.60
2023-05-21T18:45:39.474Z,9.73
2023-05-21T18:48:07.073Z,10.93
2023-05-21T18:50:35.150Z,11.00
2023-05-21T18:53:02.554Z,10.15
2023-05-21T18:55:29.867Z,9.88
2023-05-21T18:57:57.415Z,11.57
2023-05-21T19:00:24.966Z,14.95
2023-05-21T19:02:52.351Z,11.57
2023-05-21T19:05:19.812Z,11.48
2023-05-21T19:07:47.459Z,14.88
2023-05-21T19:10:14.798Z,12.75
2023-05-21T19:12:43.465Z,9.23
2023-05-21T19:15:11.212Z,11.40
2023-05-21T19:17:39.749Z,12.50
2023-05-21T19:20:10.645Z,13.15
2023-05-21T19:22:38.025Z,12.50
2023-05-21T19:25:05.562Z,14.73
2023-05-21T19:27:32.880Z,17.73
2023-05-21T19:30:00.281Z,12.68
2023-05-21T19:32:27.724Z,17.63
2023-05-21T19:34:57.386Z,14.77
2023-05-21T19:37:24.798Z,14.00
2023-05-21T19:39:52.170Z,15.70
2023-05-21T19:42:22.806Z,15.38
2023-05-21T19:44:50.300Z,15.25
2023-05-21T19:47:17.695Z,15.63
2023-05-21T19:49:44.985Z,15.05
2023-05-21T19:52:12.453Z,11.83
2023-05-21T19:54:39.887Z,13.88
2023-05-21T19:57:12.149Z,10.75
2023-05-21T19:59:39.900Z,13.40
2023-05-21T20:02:07.609Z,15.32
2023-05-21T20:04:34.884Z,12.23
2023-05-21T20:07:02.181Z,13.75
2023-05-21T20:09:29.533Z,13.43
2023-05-21T20:11:56.979Z,13.57
2023-05-21T20:14:24.242Z,15.90
2023-05-21T20:16:53.605Z,14.13
2023-05-21T20:19:22.676Z,14.73
2023-05-21T20:21:50.092Z,16.02
2023-05-21T20:24:17.389Z,13.23
2023-05-21T20:26:45.036Z,13.25
2023-05-21T20:29:12.350Z,12.70
2023-05-21T20:31:39.764Z,11.27
2023-05-21T20:34:08.966Z,13.75
2023-05-21T20:36:36.602Z,13.13
2023-05-21T20:39:04.980Z,12.68
2023-05-21T20:41:38.647Z,13.33
2023-05-21T20:44:06.519Z,12.38
2023-05-21T20:46:34.294Z,15.52
2023-05-21T20:49:01.846Z,13.25
2023-05-21T20:51:29.181Z,12.32
2023-05-21T20:53:57.078Z,14.37
2023-05-21T20:56:37.453Z,13.50
2023-05-21T20:59:09.950Z,12.68
2023-05-21T21:01:38.494Z,15.18
2023-05-21T21:04:06.073Z,12.80
2023-05-21T21:06:33.845Z,12.37
2023-05-21T21:09:01.155Z,12.88
2023-05-21T21:11:28.502Z,12.45
2023-05-21T21:13:55.957Z,10.35
2023-05-21T21:16:23.349Z,10.27
2023-05-21T21:18:50.667Z,11.77
2023-05-21T21:21:17.988Z,13.23
2023-05-21T21:23:45.372Z,15.43
2023-05-21T21:26:12.676Z,13.13
2023-05-21T21:28:39.945Z,14.20
2023-05-21T21:31:07.246Z,11.13
2023-05-21T21:33:34.619Z,13.05
2023-05-21T21:36:01.925Z,11.07
2023-05-21T21:38:29.304Z,13.20
2023-05-21T21:40:56.729Z,11.60
2023-05-21T21:43:24.043Z,12.70
2023-05-21T21:45:51.473Z,15.32
2023-05-21T21:48:18.791Z,15.40
2023-05-21T21:50:46.276Z,14.20
2023-05-21T21:53:14.049Z,16.50
2023-05-21T21:55:41.549Z,13.13
2023-05-21T21:58:08.853Z,16.92
2023-05-21T22:00:36.906Z,14.20
2023-05-21T22:03:04.511Z,16.60
2023-05-21T22:05:32.630Z,14.38
2023-05-21T22:07:59.958Z,12.10
2023-05-21T22:10:27.275Z,13.38
2023-05-21T22:12:54.547Z,13.73
2023-05-21T22:15:28.567Z,15.05
2023-05-21T22:17:56.085Z,17.95
2023-05-21T22:20:23.493Z,15.10
2023-05-21T22:22:51.678Z,13.57
2023-05-21T22:25:19.674Z,15.90
2023-05-21T22:27:47.030Z,13.98
2023-05-21T22:30:14.362Z,14.00
2023-05-21T22:32:41.771Z,15.67
2023-05-21T22:35:09.655Z,16.33
2023-05-21T22:37:37.445Z,13.80
2023-05-21T22:40:08.576Z,17.58
2023-05-21T22:42:36.358Z,17.05
2023-05-21T22:45:03.851Z,14.67
2023-05-21T22:47:32.245Z,17.00
2023-05-21T22:50:01.416Z,18.05
2023-05-21T22:52:28.837Z,15.48
2023-05-21T22:54:57.872Z,14.00
2023-05-21T22:57:25.627Z,12.17
2023-05-21T22:59:52.924Z,18.20
2023-05-21T23:02:20.718Z,15.88
2023-05-21T23:04:49.369Z,16.30
2023-05-21T23:07:16.769Z,16.05
2023-05-21T23:09:44.065Z,20.13
2023-05-21T23:12:11.586Z,13.82
2023-05-21T23:14:38.916Z,16.08
2023-05-21T23:17:07.481Z,14.48
2023-05-21T23:19:34.919Z,16.98
2023-05-21T23:22:02.380Z,16.70
2023-05-21T23:24:29.827Z,18.60
2023-05-21T23:27:02.000Z,17.25
2023-05-21T23:29:31.430Z,19.90
2023-05-21T23:32:00.973Z,14.35
2023-05-21T23:34:28.847Z,15.30
2023-05-21T23:36:57.017Z,20.40
2023-05-21T23:39:27.600Z,15.77
2023-05-21T23:41:55.109Z,17.33
2023-05-21T23:44:22.465Z,18.17
2023-05-21T23:46:50.053Z,19.53
2023-05-21T23:49:17.354Z,17.50
2023-05-21T23:51:44.797Z,17.73
2023-05-21T23:54:12.083Z,16.52
2023-05-21T23:56:39.396Z,12.32
2023-05-21T23:59:06.712Z,20.37
